Hollister, Wisconsin
Current Conditions -  °F | °C
As of 10:55 AM on Friday 24 Oct 2014 (Local Time) from KAIG Reporting Station
Haze Haze  
Wind Chill: 44°   Ceiling: 300
Heat Index: 46°   Visibility: 1mi
Dew Point: 46°   Wind: 5mph
Humidity: 100%   Direction: 180°S
Pressure: 29.98"   Gusts: NA
Location:  45.261°N, 88.731°W
Report Text: KAIG 241555Z AUTO 18004KT 1SM BR OVC003 08/08 A2998 RMK AO2 T00780078
Loading
Personal Weather Stations






























Interactive Weather Map
Tropical Storm Tracking
New forecast layout! Learn more

10-Day Weather Forecast

Advertisements
Track Severe Weather on mobile